Nearby METAR Reports

 

GCLP - Las Palmas/Gando, Spain
Distance from station: NE 26km
Updated: 23/10/2017 02:00
Partly cloudy
Partly cloudy
 Wind from NNE
Wind: NNE 24 km/h
Temperature: 22°C
Dew Point: 20°C
Humidity: 88%
Barometer: 1019 hPa
Clouds: Partly cloudy
Visibility: 10 km
Cloud details: Partly cloudy 305 m
Partly cloudy 640 m
2017/10/23 02:00 GCLP 230200Z 02013KT 9999 SCT010 SCT021 22/20 Q1019 NOSIG
GCTS - Tenerife Sur/Rei, Spain
Distance from station: WNW 102km
Updated: 23/10/2017 02:00
Few Clouds
Few Clouds
 Wind from NE
Wind: NE 15 km/h
Temperature: 22°C
Dew Point: 16°C
Humidity: 69%
Barometer: 1019 hPa
Clouds: Few Clouds
Visibility: 10 km
Cloud details: Few Clouds 914 m
2017/10/23 02:00 GCTS 230200Z 05008KT 010V070 9999 FEW030 22/16 Q1019 NOSIG
 
GCXO - Tenerife/Los Rod, Spain
Distance from station: NW 110km
Updated: 23/10/2017 02:00
Mostly cloudy
Mostly cloudy
 Wind from SSE
Wind: SSE 9 km/h
Temperature: 17°C
Dew Point: 16°C
Humidity: 94%
Barometer: 1021 hPa
Clouds: Mostly cloudy
Visibility: 10 km
Cloud details: Mostly cloudy 1067 m
2017/10/23 02:00 GCXO 230200Z AUTO 15005KT 9999 BKN035/// 17/16 Q1021
GCGM - La Gomera Arpt, Spain
Distance from station: W 164km
Updated: 23/10/2017 02:00
Few Clouds
Few Clouds
 Wind from calm
Wind: Calm
Temperature: 21°C
Dew Point: 17°C
Humidity: 78%
Barometer: 1019 hPa
Clouds: Few Clouds
Visibility: 10 km
Cloud details: Few Clouds 1006 m
2017/10/23 02:00 GCGM 230200Z AUTO 00000KT 9999 FEW033/// 21/17 Q1019 RMK R09/00000KT ARP/00000KT
 
GCFV - Fuerteventura Ar, Spain
Distance from station: ENE 183km
Updated: 23/10/2017 02:00
Partly cloudy
Partly cloudy
 Wind from ENE
Wind: ENE 22 km/h
Temperature: 22°C
Dew Point: 20°C
Humidity: 88%
Barometer: 1019 hPa
Clouds: Partly cloudy
Visibility: 9 km
Cloud details: Few Clouds 579 m
Partly cloudy 1158 m
2017/10/23 02:00 GCFV 230200Z AUTO 06012KT 9000 FEW019/// SCT038/// 22/20 Q1019
GCHI - Hierro Airport, Spain
Distance from station: W 226km
Updated: 23/10/2017 02:00
Overcast
Overcast
 Wind from ENE
Wind: ENE 26 km/h
Temperature: 23°C
Dew Point: 20°C
Humidity: 83%
Barometer: 1019 hPa
Clouds: Overcast
Cloud details: Few Clouds 457 m
Mostly cloudy 1341 m
Overcast 1798 m
2017/10/23 02:00 GCHI 230200Z AUTO 06014KT //// R34///// FEW015/// BKN044/// OVC059/// 23/20 Q1019
 
GCLA - La Palma Airport, Spain
Distance from station: WNW 233km
Updated: 23/10/2017 02:00
Overcast
Overcast
 Wind from NNE
Wind: NNE 7 km/h
Temperature: 23°C
Dew Point: 18°C
Humidity: 74%
Barometer: 1020 hPa
Clouds: Overcast
Visibility: 9 km
Cloud details: Overcast 1829 m
2017/10/23 02:00 GCLA 230200Z AUTO 03004KT 340V080 9000 OVC060 23/18 Q1020
GCRR - Arrecife/Lanzaro, Spain
Distance from station: NE 234km
Updated: 23/10/2017 00:00
NOT Current
Few Clouds
Few Clouds
 Wind from NE
Wind: NE 22 km/h
Temperature: 22°C
Dew Point: 20°C
Humidity: 88%
Barometer: 1020 hPa
Clouds: Few Clouds
Visibility: 10 km
Cloud details: Few Clouds 914 m
2017/10/23 00:00 GCRR 230000Z 05012KT 9999 FEW030 22/20 Q1020
 
LPMA - Funchal/Madeira, Portugal
Distance from station: NNW 556km
Updated: 23/10/2017 02:00
Mostly cloudy
Mostly cloudy
 Wind from N
Wind: N 15 km/h
Temperature: 20°C
Dew Point: 13°C
Humidity: 64%
Barometer: 1023 hPa
Clouds: Mostly cloudy
Visibility: 10 km
Cloud details: Mostly cloudy 457 m
2017/10/23 02:00 LPMA 230200Z 36008KT 330V030 9999 BKN015 20/13 Q1023
LPPS - Porto Santo Isla, Portugal
Distance from station: N 594km
Updated: 23/10/2017 02:00
Mostly cloudy
Mostly cloudy
 Wind from ENE
Wind: ENE 19 km/h
Temperature: 20°C
Dew Point: 13°C
Humidity: 64%
Barometer: 1023 hPa
Clouds: Mostly cloudy
Visibility: 10 km
Cloud details: Partly cloudy 457 m
Mostly cloudy 914 m
2017/10/23 02:00 LPPS 230200Z 07010KT 030V100 9999 SCT015 BKN030 20/13 Q1023